Latest Weather Observations for Moree

IDN60801

Issued at 11:04 pm EDT Saturday 28 February 2015 (issued every 30 minutes, with the page automatically refreshed every 10 minutes)

About weather observations | Map of weather stations | Latest weather observations for NSW | Other Formats
Station Details ID: 053115 Name: MOREE AERO Lat: -29.49 Lon: 149.85 Height: 213.0 m
Data from the previous 72 hours. | See also: Recent months at Moree
Date/Time
EDT
Temp
°C
App
Temp
°C
Dew
Point
Rel
Hum
%
Delta-T
°C
Wind Press
QNH
hPa
Press
MSL
hPa
Rain
since 9 am
mm
Dir
 
Spd
km/h
Gust
km/h
Spd
kts
Gust
kts
28/11:00pm 27.2 27.0 17.7 56 6.1 ENE 15 19 8 10 1008.9 1007.6 0.0
28/10:30pm 27.3 26.8 17.8 56 6.1 ENE 17 22 9 12 1008.8 1007.5 0.0
28/10:00pm 27.7 27.1 17.5 53 6.5 ENE 17 26 9 14 1008.5 1007.2 0.0
28/09:30pm 28.0 27.2 17.2 52 6.8 ENE 17 24 9 13 1008.3 1007.0 0.0
28/09:00pm 28.2 27.7 16.8 50 7.2 NE 15 20 8 11 1008.2 1006.9 0.0
28/08:30pm 28.7 27.7 16.6 48 7.6 NE 17 19 9 10 1007.9 1006.6 0.0
28/08:00pm 29.1 28.8 17.3 49 7.5 NE 15 19 8 10 1007.7 1006.4 0.0
28/07:30pm 29.6 28.5 17.4 47 7.8 NE 19 24 10 13 1007.3 1006.0 0.0
28/07:00pm 30.2 27.9 17.6 46 8.1 NE 26 32 14 17 1006.7 1005.4 0.0
28/06:30pm 30.9 27.7 17.2 43 8.8 NE 30 33 16 18 1006.6 1005.3 0.0
28/06:00pm 31.3 28.0 16.1 40 9.6 NE 28 37 15 20 1006.4 1005.1 0.0
28/05:30pm 31.4 27.9 16.6 41 9.4 NE 30 37 16 20 1006.3 1005.0 0.0
28/05:00pm 31.8 28.1 16.9 40 9.5 NE 32 39 17 21 1006.5 1005.2 0.0
28/04:30pm 31.2 28.3 17.1 42 9.0 NE 28 35 15 19 1006.9 1005.6 0.0
28/04:00pm 31.3 28.6 17.6 44 8.8 NE 28 37 15 20 1007.3 1006.0 0.0
28/03:30pm 30.8 28.5 18.5 47 8.0 ENE 28 39 15 21 1007.8 1006.5 0.0
28/03:00pm 31.1 28.6 18.8 48 8.1 NE 30 37 16 20 1008.0 1006.7 0.0
28/02:30pm 28.8 27.2 18.3 53 6.8 NE 24 35 13 19 1008.8 1007.5 0.0
28/02:00pm 30.0 28.4 19.1 52 7.1 NNE 26 33 14 18 1009.0 1007.7 0.0
28/01:30pm 29.0 26.5 18.1 51 7.0 NNE 28 37 15 20 1009.5 1008.2 0.0
28/01:00pm 29.0 26.0 17.8 50 7.2 NNE 30 46 16 25 1009.8 1008.5 0.0
28/12:30pm 28.1 24.6 17.9 54 6.5 NNE 33 43 18 23 1010.1 1008.8 0.0
28/12:00pm 28.0 23.7 17.8 54 6.5 NNE 37 48 20 26 1010.3 1009.0 0.0
28/11:30am 27.0 23.5 18.0 58 5.7 NNE 33 41 18 22 1010.4 1009.1 0.0
28/11:00am 27.1 23.6 18.7 60 5.4 NNE 35 44 19 24 1010.6 1009.3 0.0
28/10:30am 28.0 24.5 18.7 57 6.0 NNE 35 44 19 24 1010.7 1009.4 0.0
28/10:00am 27.3 24.2 18.3 58 5.8 NE 32 41 17 22 1010.5 1009.2 0.0
28/09:30am 26.6 23.5 18.5 61 5.2 NE 32 39 17 21 1010.6 1009.3 0.0
28/09:00am 25.3 22.2 18.5 66 4.4 NE 32 37 17 20 1010.7 1009.4 0.2
28/08:30am 24.5 22.1 18.2 68 4.0 NE 28 35 15 19 1010.6 1009.3 0.2
28/08:00am 23.2 22.5 18.3 74 3.1 NE 19 22 10 12 1010.4 1009.1 0.2
28/07:30am 22.8 21.0 17.9 74 3.1 NE 24 30 13 16 1010.1 1008.8 0.2
28/07:00am 22.8 21.7 17.7 73 3.2 ENE 20 28 11 15 1009.7 1008.4 0.2
28/06:30am 22.9 21.4 17.6 72 3.3 ENE 22 30 12 16 1009.4 1008.1 0.2
28/06:00am 22.9 21.9 17.6 72 3.3 ENE 19 26 10 14 1009.2 1007.9 0.2
28/05:30am 22.5 21.4 17.4 73 3.2 ENE 19 24 10 13 1009.1 1007.8 0.2
28/05:00am 22.3 22.4 17.4 74 3.1 ENE 13 19 7 10 1008.9 1007.6 0.2
28/04:30am 22.2 21.1 17.3 74 3.0 E 19 22 10 12 1008.5 1007.2 0.2
28/04:00am 22.3 21.6 17.4 74 3.1 E 17 20 9 11 1008.4 1007.1 0.2
28/03:30am 23.0 23.2 17.7 72 3.3 E 13 17 7 9 1008.5 1007.2 0.2
28/03:00am 24.0 23.6 18.0 69 3.8 ENE 17 26 9 14 1008.3 1007.0 0.2
28/02:30am 24.6 23.7 18.1 67 4.1 ENE 20 28 11 15 1008.7 1007.4 0.2
28/02:00am 24.8 24.1 18.3 67 4.1 NE 19 26 10 14 1008.8 1007.5 0.2
28/01:30am 24.8 24.0 18.0 66 4.3 ENE 19 24 10 13 1008.8 1007.5 0.2
28/01:00am 24.8 24.3 17.8 65 4.4 ENE 17 20 9 11 1008.8 1007.5 0.2
28/12:30am 24.9 25.0 17.4 63 4.7 ENE 13 15 7 8 1008.9 1007.6 0.2
28/12:00am 25.9 26.2 17.8 61 5.1 ENE 13 17 7 9 1008.6 1007.3 0.2
 
Date/Time
EDT
Temp
°C
App
Temp
°C
Dew
Point
Rel
Hum
%
Delta-T
°C
Wind Press
QNH
hPa
Press
MSL
hPa
Rain
since 9 am
mm
Dir
 
Spd
km/h
Gust
km/h
Spd
kts
Gust
kts
27/11:30pm 26.7 27.0 18.0 59 5.5 ENE 13 15 7 8 1008.4 1007.1 0.2
27/11:00pm 26.1 25.6 16.9 57 5.8 ENE 15 19 8 10 1008.4 1007.1 0.2
27/10:30pm 26.7 25.7 16.6 54 6.3 ENE 17 22 9 12 1008.1 1006.8 0.2
27/10:00pm 27.1 26.4 16.4 52 6.7 E 15 17 8 9 1008.0 1006.7 0.2
27/09:30pm 27.9 28.1 16.8 50 7.0 E 11 13 6 7 1007.8 1006.5 0.2
27/09:00pm 28.7 28.7 16.3 47 7.8 E 11 15 6 8 1007.3 1006.0 0.2
27/08:30pm 29.5 29.0 16.0 44 8.4 ESE 13 17 7 9 1006.6 1005.3 0.2
27/08:00pm 30.5 30.7 15.8 41 9.2 ESE 9 13 5 7 1006.1 1004.8 0.2
27/07:30pm 31.0 30.5 15.8 40 9.5 E 13 17 7 9 1005.8 1004.5 0.2
27/07:00pm 31.6 31.0 14.7 36 10.5 E 11 15 6 8 1005.6 1004.3 0.2
27/06:30pm 31.9 32.4 15.0 36 10.5 NE 6 17 3 9 1005.4 1004.1 0.2
27/06:00pm 32.2 33.0 14.8 35 10.8 ENE 4 15 2 8 1004.9 1003.6 0.2
27/05:30pm 33.2 32.6 15.7 35 11.0 E 13 17 7 9 1004.8 1003.5 0.2
27/05:00pm 32.8 32.7 14.9 34 11.2 NE 9 15 5 8 1004.9 1003.6 0.2
27/04:30pm 32.7 33.4 16.1 37 10.5 NNE 7 17 4 9 1005.1 1003.8 0.2
27/04:00pm 32.5 33.1 16.8 39 10.1 N 9 17 5 9 1005.6 1004.3 0.2
27/03:30pm 32.2 31.3 16.9 40 9.8 NNE 17 28 9 15 1006.1 1004.8 0.2
27/03:00pm 31.3 30.9 17.2 42 9.0 N 15 24 8 13 1006.4 1005.1 0.2
27/02:30pm 30.8 30.8 17.1 43 8.7 NNW 13 22 7 12 1007.1 1005.7 0.2
27/02:00pm 31.4 31.3 18.7 46 8.3 N 17 28 9 15 1007.3 1006.0 0.2
27/01:30pm 29.4 29.2 18.5 52 7.1 N 17 24 9 13 1007.7 1006.4 0.2
27/01:00pm 29.2 28.5 17.4 49 7.5 N 17 28 9 15 1008.1 1006.8 0.2
27/12:30pm 30.1 28.9 18.5 49 7.5 N 22 32 12 17 1008.4 1007.1 0.2
27/12:00pm 28.6 26.5 18.1 53 6.8 NNE 26 39 14 21 1008.8 1007.5 0.2
27/11:30am 28.0 25.0 17.8 54 6.5 NNE 30 37 16 20 1009.2 1007.9 0.2
27/11:00am 27.3 24.3 17.8 56 6.1 NNE 30 39 16 21 1009.3 1008.0 0.0
27/10:30am 26.3 23.4 17.9 60 5.3 NE 30 35 16 19 1009.3 1008.0 0.0
27/10:00am 25.2 22.4 17.4 62 4.9 NE 28 37 15 20 1009.3 1008.0 0.0
27/09:30am 24.8 21.5 17.0 62 4.9 NE 30 37 16 20 1009.2 1007.9 0.0
27/09:00am 23.8 20.7 16.6 64 4.5 NE 28 35 15 19 1009.0 1007.7 0.0
27/08:30am 23.3 20.6 16.6 66 4.1 ENE 26 35 14 19 1008.8 1007.5 0.0
27/08:00am 21.9 19.5 16.4 71 3.4 ENE 24 30 13 16 1008.5 1007.2 0.0
27/07:30am 21.0 20.0 16.6 76 2.7 ENE 17 22 9 12 1008.1 1006.8 0.0
27/07:00am 20.4 19.0 16.6 79 2.3 ENE 19 26 10 14 1007.8 1006.5 0.0
27/06:30am 20.6 19.7 16.8 79 2.3 ENE 17 24 9 13 1007.5 1006.2 0.0
27/06:00am 20.8 19.3 16.8 78 2.5 ENE 20 26 11 14 1007.1 1005.7 0.0
27/05:30am 21.2 19.7 16.8 76 2.7 ENE 20 28 11 15 1006.7 1005.4 0.0
27/05:00am 21.4 20.2 17.0 76 2.7 ENE 19 26 10 14 1006.6 1005.3 0.0
27/04:30am 21.8 20.5 17.2 75 2.8 ENE 20 32 11 17 1006.7 1005.4 0.0
27/04:00am 21.8 20.8 17.6 77 2.6 E 19 28 10 15 1006.7 1005.4 0.0
27/03:30am 22.3 18.8 17.4 74 3.1 E 32 39 17 21 1006.6 1005.3 0.0
27/03:00am 23.1 21.6 17.6 71 3.5 E 22 33 12 18 1006.8 1005.5 0.0
27/02:30am 23.5 22.3 17.5 69 3.8 E 20 26 11 14 1006.8 1005.5 0.0
27/02:00am 23.2 20.7 18.1 73 3.2 E 28 33 15 18 1006.8 1005.5 0.0
27/01:30am 23.2 21.7 18.5 75 3.0 E 24 32 13 17 1007.2 1005.9 0.0
27/01:00am 23.3 22.1 18.4 74 3.1 E 22 35 12 19 1007.1 1005.7 0.0
27/12:30am 23.6 23.3 18.3 72 3.4 ENE 17 26 9 14 1006.6 1005.3 0.0
27/12:00am 22.8 21.9 17.7 73 3.2 E 19 26 10 14 1006.7 1005.4 0.0
 
Date/Time
EDT
Temp
°C
App
Temp
°C
Dew
Point
Rel
Hum
%
Delta-T
°C
Wind Press
QNH
hPa
Press
MSL
hPa
Rain
since 9 am
mm
Dir
 
Spd
km/h
Gust
km/h
Spd
kts
Gust
kts
26/11:30pm 22.9 22.0 16.9 69 3.7 E 17 20 9 11 1006.3 1005.0 0.0
26/11:00pm 23.2 22.2 16.5 66 4.1 ESE 17 22 9 12 1006.3 1005.0 0.0
26/10:30pm 23.2 21.6 16.5 66 4.1 E 20 28 11 15 1006.3 1005.0 0.0
26/10:00pm 23.7 21.0 16.5 64 4.5 E 26 35 14 19 1006.4 1005.1 0.0
26/09:30pm 23.9 21.0 17.9 69 3.8 E 30 37 16 20 1006.1 1004.8 0.0
26/09:00pm 26.8 24.9 17.6 57 5.9 E 24 33 13 18 1005.7 1004.4 0.0
26/08:50pm 26.5 23.5 17.8 58 5.5 SE 30 41 16 22 1005.6 1004.3 0.0
26/08:30pm 28.2 23.9 17.7 53 6.7 SE 37 63 20 34 1005.4 1004.1 0.0
26/08:26pm 27.4 23.8 17.3 54 6.4 SE 32 61 17 33 1005.2 1003.9 0.0
26/08:25pm 27.5 24.7 17.4 54 6.4 SE 28 44 15 24 1005.3 1004.0 0.0
26/08:00pm 26.6 26.1 17.9 59 5.6 NE 17 24 9 13 1003.9 1002.6 0.0
26/07:30pm 26.9 25.0 16.8 54 6.3 NE 22 28 12 15 1003.9 1002.6 0.0
26/07:00pm 26.7 25.0 16.3 53 6.5 NE 20 30 11 16 1003.5 1002.2 0.0
26/06:30pm 27.0 24.3 17.5 56 6.0 NNE 28 37 15 20 1003.9 1002.6 0.0
26/06:00pm 25.1 21.2 18.8 68 4.1 NNW 37 57 20 31 1004.3 1003.0 0.0
26/05:45pm 25.8 19.6 15.8 54 6.1 NW 43 72 23 39 1004.7 1003.4 0.0
26/05:38pm 28.0 26.0 13.9 42 8.5 NNE 17 52 9 28 1004.6 1003.3 0.0
26/05:30pm 33.0 32.2 14.1 32 11.6 NE 11 15 6 8 1003.9 1002.6 0.0
26/05:00pm 33.6 34.1 14.1 30 12.1 NNW 4 13 2 7 1003.5 1002.2 0.0
26/04:30pm 33.9 33.2 14.4 31 12.1 NNW 11 19 6 10 1003.9 1002.6 0.0
26/04:00pm 33.7 32.4 14.7 32 11.9 N 15 26 8 14 1004.3 1003.0 0.0
26/03:30pm 34.3 33.9 15.2 31 12.0 N 11 22 6 12 1005.1 1003.8 0.0
26/03:00pm 32.9 32.1 15.0 34 11.2 NNE 13 20 7 11 1005.7 1004.4 0.0
26/02:30pm 32.7 31.2 15.2 34 10.9 N 17 30 9 16 1006.4 1005.1 0.0
26/02:00pm 33.7 32.0 15.7 34 11.4 N 19 33 10 18 1007.1 1005.7 0.0
26/01:30pm 32.3 30.4 15.3 35 10.6 N 19 30 10 16 1007.5 1006.2 0.0
26/01:00pm 31.1 29.6 16.3 41 9.4 N 19 28 10 15 1007.9 1006.6 0.0
26/12:30pm 31.9 29.1 15.4 37 10.3 N 24 33 13 18 1008.6 1007.3 0.0
26/12:00pm 29.7 26.9 15.4 42 8.9 NNE 24 37 13 20 1009.1 1007.8 0.0
26/11:30am 28.7 25.6 15.6 45 8.1 NNE 26 39 14 21 1009.5 1008.2 0.0
26/11:00am 27.7 25.3 16.3 49 7.1 NNE 24 35 13 19 1009.9 1008.6 0.0
26/10:30am 27.0 23.8 16.3 52 6.7 NNE 28 37 15 20 1010.2 1008.9 0.0
26/10:00am 26.0 22.9 16.5 55 5.9 N 28 39 15 21 1010.3 1009.0 0.0
26/09:30am 25.0 22.2 17.2 62 4.9 N 28 37 15 20 1010.4 1009.1 0.0
26/09:00am 24.8 22.1 17.5 64 4.6 NNE 28 39 15 21 1010.3 1009.0 0.0
26/08:30am 24.0 20.6 16.8 64 4.5 NNE 30 37 16 20 1010.1 1008.8 0.0
26/08:00am 23.6 22.0 16.4 64 4.4 NE 20 28 11 15 1010.4 1009.1 0.0
26/07:30am 22.6 21.4 16.2 67 3.9 NE 17 22 9 12 1010.1 1008.8 0.0
26/07:00am 22.3 21.2 16.3 69 3.7 NE 17 26 9 14 1009.8 1008.5 0.0
26/06:30am 22.5 21.2 16.8 70 3.5 NE 19 28 10 15 1009.6 1008.3 0.0
26/06:00am 22.2 21.5 17.3 74 3.0 NE 17 19 9 10 1009.3 1008.0 0.0
26/05:30am 22.4 22.2 17.5 74 3.1 NE 15 19 8 10 1009.4 1008.1 0.0
26/05:00am 22.2 21.8 18.0 77 2.6 ENE 17 20 9 11 1009.1 1007.8 0.0
26/04:30am 22.2 21.9 18.2 78 2.5 NE 17 20 9 11 1009.1 1007.8 0.0
26/04:00am 21.9 21.0 18.3 80 2.3 ENE 20 32 11 17 1009.1 1007.8 0.0
26/03:30am 21.8 21.1 18.2 80 2.3 E 19 26 10 14 1009.4 1008.1 0.0
26/03:00am 23.1 22.9 17.6 71 3.4 E 15 19 8 10 1009.9 1008.6 0.0
26/02:30am 23.6 22.6 17.6 69 3.8 ENE 19 24 10 13 1009.7 1008.4 0.0
26/02:00am 23.3 22.6 17.3 69 3.7 ENE 17 24 9 13 1009.6 1008.3 0.0
26/01:30am 22.8 21.8 17.5 72 3.3 ENE 19 22 10 12 1009.9 1008.6 0.0
26/01:00am 22.3 20.9 17.9 76 2.8 E 22 28 12 15 1010.0 1008.7 0.0
26/12:30am 22.2 19.5 17.6 75 2.9 ESE 28 37 15 20 1010.0 1008.7 0.0
26/12:00am 22.5 18.7 17.2 72 3.3 SE 33 41 18 22 1010.3 1009.0 0.0
 
Date/Time
EDT
Temp
°C
App
Temp
°C
Dew
Point
Rel
Hum
%
Delta-T
°C
Wind Press
QNH
hPa
Press
MSL
hPa
Rain
since 9 am
mm
Dir
 
Spd
km/h
Gust
km/h
Spd
kts
Gust
kts
25/11:35pm 25.2 19.7 15.8 56 5.8 SSE 39 56 21 30 1010.2 1008.9 0.0
25/11:32pm 26.1 21.2 15.2 51 6.6 S 35 54 19 29 1010.4 1009.1 0.0
25/11:30pm 26.3 22.0 15.4 51 6.7 S 32 43 17 23 1010.8 1009.5 0.0

Other Formats:

Comma delimited format used in spreadsheet applications
http://www.bom.gov.au/fwo/IDN60801/IDN60801.95527.axf

JavaScript Object Notation format (JSON) in row-major order
http://www.bom.gov.au/fwo/IDN60801/IDN60801.95527.json